sensor_id;sensor_type;location;lat;lon;timestamp;P1;durP1;ratioP1;P2;durP2;ratioP2
5774;SDS011;2913;51.120;6.772;2022-07-23T00:01:38;66.25;;;27.83;;
5774;SDS011;2913;51.120;6.772;2022-07-23T00:04:06;73.40;;;29.60;;
5774;SDS011;2913;51.120;6.772;2022-07-23T00:06:31;76.35;;;27.55;;
5774;SDS011;2913;51.120;6.772;2022-07-23T00:08:57;87.35;;;28.92;;
5774;SDS011;2913;51.120;6.772;2022-07-23T00:11:25;77.18;;;30.20;;
5774;SDS011;2913;51.120;6.772;2022-07-23T00:13:50;76.90;;;30.83;;
5774;SDS011;2913;51.120;6.772;2022-07-23T00:16:16;85.75;;;30.02;;
5774;SDS011;2913;51.120;6.772;2022-07-23T00:18:44;72.07;;;31.08;;
5774;SDS011;2913;51.120;6.772;2022-07-23T00:21:10;92.35;;;32.78;;
5774;SDS011;2913;51.120;6.772;2022-07-23T00:23:36;84.35;;;31.27;;
5774;SDS011;2913;51.120;6.772;2022-07-23T00:26:04;83.28;;;33.17;;
5774;SDS011;2913;51.120;6.772;2022-07-23T00:28:29;76.10;;;30.92;;
5774;SDS011;2913;51.120;6.772;2022-07-23T00:30:55;81.75;;;30.35;;
5774;SDS011;2913;51.120;6.772;2022-07-23T00:33:21;77.65;;;30.08;;
5774;SDS011;2913;51.120;6.772;2022-07-23T00:35:46;82.00;;;31.20;;
5774;SDS011;2913;51.120;6.772;2022-07-23T00:38:12;92.18;;;31.40;;
5774;SDS011;2913;51.120;6.772;2022-07-23T00:40:38;93.53;;;31.17;;
5774;SDS011;2913;51.120;6.772;2022-07-23T00:43:06;91.28;;;30.90;;
5774;SDS011;2913;51.120;6.772;2022-07-23T00:45:33;74.72;;;30.27;;
5774;SDS011;2913;51.120;6.772;2022-07-23T00:47:58;74.20;;;28.85;;
5774;SDS011;2913;51.120;6.772;2022-07-23T00:50:27;78.03;;;29.90;;
5774;SDS011;2913;51.120;6.772;2022-07-23T00:52:53;78.22;;;31.10;;
5774;SDS011;2913;51.120;6.772;2022-07-23T00:55:19;79.68;;;30.42;;
5774;SDS011;2913;51.120;6.772;2022-07-23T00:57:45;74.50;;;29.80;;
5774;SDS011;2913;51.120;6.772;2022-07-23T01:00:12;68.60;;;29.33;;
5774;SDS011;2913;51.120;6.772;2022-07-23T01:02:40;73.65;;;29.80;;
5774;SDS011;2913;51.120;6.772;2022-07-23T01:05:06;79.65;;;29.77;;
5774;SDS011;2913;51.120;6.772;2022-07-23T01:07:33;68.35;;;27.02;;
5774;SDS011;2913;51.120;6.772;2022-07-23T01:09:59;66.05;;;28.17;;
5774;SDS011;2913;51.120;6.772;2022-07-23T01:12:25;70.53;;;27.73;;
5774;SDS011;2913;51.120;6.772;2022-07-23T01:14:57;77.55;;;27.55;;
5774;SDS011;2913;51.120;6.772;2022-07-23T01:17:24;65.35;;;27.45;;
5774;SDS011;2913;51.120;6.772;2022-07-23T01:19:49;69.38;;;28.58;;
5774;SDS011;2913;51.120;6.772;2022-07-23T01:22:15;83.57;;;30.50;;
5774;SDS011;2913;51.120;6.772;2022-07-23T01:24:46;67.75;;;28.67;;
5774;SDS011;2913;51.120;6.772;2022-07-23T01:27:12;72.88;;;30.30;;
5774;SDS011;2913;51.120;6.772;2022-07-23T01:29:38;79.68;;;29.77;;
5774;SDS011;2913;51.120;6.772;2022-07-23T01:32:04;78.72;;;29.77;;
5774;SDS011;2913;51.120;6.772;2022-07-23T01:34:31;81.03;;;29.73;;
5774;SDS011;2913;51.120;6.772;2022-07-23T01:36:57;80.35;;;29.25;;
5774;SDS011;2913;51.120;6.772;2022-07-23T01:39:22;71.93;;;29.15;;
5774;SDS011;2913;51.120;6.772;2022-07-23T01:41:48;73.65;;;28.77;;
5774;SDS011;2913;51.120;6.772;2022-07-23T01:44:16;70.53;;;28.45;;
5774;SDS011;2913;51.120;6.772;2022-07-23T01:46:41;68.30;;;28.20;;
5774;SDS011;2913;51.120;6.772;2022-07-23T01:49:10;63.83;;;27.67;;
5774;SDS011;2913;51.120;6.772;2022-07-23T01:51:35;70.28;;;28.10;;
5774;SDS011;2913;51.120;6.772;2022-07-23T01:54:03;72.03;;;28.73;;
5774;SDS011;2913;51.120;6.772;2022-07-23T01:56:29;76.15;;;29.15;;
5774;SDS011;2913;51.120;6.772;2022-07-23T01:58:54;72.80;;;28.80;;
5774;SDS011;2913;51.120;6.772;2022-07-23T02:01:22;69.05;;;28.13;;
5774;SDS011;2913;51.120;6.772;2022-07-23T02:03:47;69.93;;;29.48;;
5774;SDS011;2913;51.120;6.772;2022-07-23T02:06:15;82.53;;;29.73;;
5774;SDS011;2913;51.120;6.772;2022-07-23T02:08:44;77.20;;;29.83;;
5774;SDS011;2913;51.120;6.772;2022-07-23T02:11:11;73.68;;;27.95;;
5774;SDS011;2913;51.120;6.772;2022-07-23T02:13:37;74.47;;;29.10;;
5774;SDS011;2913;51.120;6.772;2022-07-23T02:16:03;69.47;;;27.77;;
5774;SDS011;2913;51.120;6.772;2022-07-23T02:18:31;82.40;;;30.77;;
5774;SDS011;2913;51.120;6.772;2022-07-23T02:20:56;73.93;;;29.50;;
5774;SDS011;2913;51.120;6.772;2022-07-23T02:23:22;78.03;;;29.67;;
5774;SDS011;2913;51.120;6.772;2022-07-23T02:25:50;72.30;;;29.27;;
5774;SDS011;2913;51.120;6.772;2022-07-23T02:28:18;77.15;;;30.45;;
5774;SDS011;2913;51.120;6.772;2022-07-23T02:30:44;81.85;;;30.50;;
5774;SDS011;2913;51.120;6.772;2022-07-23T02:33:09;90.88;;;30.98;;
5774;SDS011;2913;51.120;6.772;2022-07-23T02:35:35;82.30;;;30.67;;
5774;SDS011;2913;51.120;6.772;2022-07-23T02:38:03;84.68;;;31.00;;
5774;SDS011;2913;51.120;6.772;2022-07-23T02:40:29;80.13;;;30.98;;
5774;SDS011;2913;51.120;6.772;2022-07-23T02:42:57;80.40;;;30.65;;
5774;SDS011;2913;51.120;6.772;2022-07-23T02:45:25;92.15;;;31.48;;
5774;SDS011;2913;51.120;6.772;2022-07-23T02:47:53;81.43;;;31.70;;
5774;SDS011;2913;51.120;6.772;2022-07-23T02:50:18;81.38;;;30.83;;
5774;SDS011;2913;51.120;6.772;2022-07-23T02:52:44;87.80;;;31.83;;
5774;SDS011;2913;51.120;6.772;2022-07-23T02:55:10;98.88;;;32.90;;
5774;SDS011;2913;51.120;6.772;2022-07-23T02:57:38;89.75;;;31.42;;
5774;SDS011;2913;51.120;6.772;2022-07-23T03:00:04;82.43;;;31.42;;
5774;SDS011;2913;51.120;6.772;2022-07-23T03:02:31;78.90;;;30.42;;
5774;SDS011;2913;51.120;6.772;2022-07-23T03:04:57;91.65;;;32.13;;
5774;SDS011;2913;51.120;6.772;2022-07-23T03:07:23;94.70;;;30.45;;
5774;SDS011;2913;51.120;6.772;2022-07-23T03:09:51;83.80;;;30.70;;
5774;SDS011;2913;51.120;6.772;2022-07-23T03:12:16;87.80;;;32.35;;
5774;SDS011;2913;51.120;6.772;2022-07-23T03:14:44;88.75;;;32.08;;
5774;SDS011;2913;51.120;6.772;2022-07-23T03:17:12;93.28;;;31.45;;
5774;SDS011;2913;51.120;6.772;2022-07-23T03:19:38;78.20;;;29.55;;
5774;SDS011;2913;51.120;6.772;2022-07-23T03:22:06;93.90;;;32.00;;
5774;SDS011;2913;51.120;6.772;2022-07-23T03:24:32;88.32;;;32.13;;
5774;SDS011;2913;51.120;6.772;2022-07-23T03:27:16;77.68;;;30.00;;
5774;SDS011;2913;51.120;6.772;2022-07-23T03:29:47;85.40;;;30.45;;
5774;SDS011;2913;51.120;6.772;2022-07-23T03:32:12;82.82;;;30.65;;
5774;SDS011;2913;51.120;6.772;2022-07-23T03:34:42;82.45;;;30.17;;
5774;SDS011;2913;51.120;6.772;2022-07-23T03:37:08;78.38;;;30.88;;
5774;SDS011;2913;51.120;6.772;2022-07-23T03:39:33;78.30;;;28.88;;
5774;SDS011;2913;51.120;6.772;2022-07-23T03:41:59;71.32;;;28.65;;
5774;SDS011;2913;51.120;6.772;2022-07-23T03:44:27;80.72;;;29.58;;
5774;SDS011;2913;51.120;6.772;2022-07-23T03:46:53;74.80;;;28.17;;
5774;SDS011;2913;51.120;6.772;2022-07-23T03:49:18;74.10;;;29.58;;
5774;SDS011;2913;51.120;6.772;2022-07-23T03:51:48;64.75;;;27.30;;
5774;SDS011;2913;51.120;6.772;2022-07-23T03:54:14;83.57;;;31.30;;
5774;SDS011;2913;51.120;6.772;2022-07-23T03:56:40;90.63;;;32.92;;
5774;SDS011;2913;51.120;6.772;2022-07-23T03:59:09;84.43;;;33.88;;
5774;SDS011;2913;51.120;6.772;2022-07-23T04:01:35;91.28;;;32.72;;
5774;SDS011;2913;51.120;6.772;2022-07-23T04:04:01;79.40;;;30.35;;
5774;SDS011;2913;51.120;6.772;2022-07-23T04:06:27;83.57;;;31.33;;
5774;SDS011;2913;51.120;6.772;2022-07-23T04:08:53;71.80;;;28.98;;
5774;SDS011;2913;51.120;6.772;2022-07-23T04:11:21;70.25;;;27.25;;
5774;SDS011;2913;51.120;6.772;2022-07-23T04:13:47;70.28;;;27.02;;
5774;SDS011;2913;51.120;6.772;2022-07-23T04:16:15;72.32;;;25.42;;
5774;SDS011;2913;51.120;6.772;2022-07-23T04:18:41;66.60;;;26.80;;
5774;SDS011;2913;51.120;6.772;2022-07-23T04:21:06;61.70;;;25.48;;
5774;SDS011;2913;51.120;6.772;2022-07-23T04:23:32;72.80;;;26.35;;
5774;SDS011;2913;51.120;6.772;2022-07-23T04:25:57;63.97;;;25.35;;
5774;SDS011;2913;51.120;6.772;2022-07-23T04:28:23;70.57;;;26.25;;
5774;SDS011;2913;51.120;6.772;2022-07-23T04:30:49;57.60;;;25.40;;
5774;SDS011;2913;51.120;6.772;2022-07-23T04:33:16;52.63;;;24.10;;
5774;SDS011;2913;51.120;6.772;2022-07-23T04:35:42;69.25;;;25.17;;
5774;SDS011;2913;51.120;6.772;2022-07-23T04:38:08;59.83;;;27.65;;
5774;SDS011;2913;51.120;6.772;2022-07-23T04:40:33;61.72;;;26.52;;
5774;SDS011;2913;51.120;6.772;2022-07-23T04:42:59;58.97;;;25.75;;
5774;SDS011;2913;51.120;6.772;2022-07-23T04:45:24;63.00;;;23.55;;
5774;SDS011;2913;51.120;6.772;2022-07-23T04:47:50;52.65;;;23.48;;
5774;SDS011;2913;51.120;6.772;2022-07-23T04:50:18;50.75;;;22.20;;
5774;SDS011;2913;51.120;6.772;2022-07-23T04:52:52;43.25;;;21.05;;
5774;SDS011;2913;51.120;6.772;2022-07-23T04:55:20;51.10;;;21.23;;
5774;SDS011;2913;51.120;6.772;2022-07-23T04:57:45;48.08;;;21.05;;
5774;SDS011;2913;51.120;6.772;2022-07-23T05:00:11;48.10;;;21.73;;
5774;SDS011;2913;51.120;6.772;2022-07-23T05:02:39;47.85;;;19.67;;
5774;SDS011;2913;51.120;6.772;2022-07-23T05:05:07;43.67;;;21.33;;
5774;SDS011;2913;51.120;6.772;2022-07-23T05:07:33;49.10;;;20.98;;
5774;SDS011;2913;51.120;6.772;2022-07-23T05:10:01;49.20;;;21.73;;
5774;SDS011;2913;51.120;6.772;2022-07-23T05:12:26;51.10;;;19.90;;
5774;SDS011;2913;51.120;6.772;2022-07-23T05:14:52;42.50;;;20.02;;
5774;SDS011;2913;51.120;6.772;2022-07-23T05:17:17;45.33;;;19.83;;
5774;SDS011;2913;51.120;6.772;2022-07-23T05:19:43;47.20;;;19.02;;
5774;SDS011;2913;51.120;6.772;2022-07-23T05:22:09;41.70;;;19.30;;
5774;SDS011;2913;51.120;6.772;2022-07-23T05:24:36;49.97;;;19.25;;
5774;SDS011;2913;51.120;6.772;2022-07-23T05:27:02;45.70;;;20.40;;
5774;SDS011;2913;51.120;6.772;2022-07-23T05:29:28;50.97;;;19.85;;
5774;SDS011;2913;51.120;6.772;2022-07-23T05:31:56;46.42;;;19.58;;
5774;SDS011;2913;51.120;6.772;2022-07-23T05:34:22;44.65;;;20.75;;
5774;SDS011;2913;51.120;6.772;2022-07-23T05:36:47;47.83;;;20.92;;
5774;SDS011;2913;51.120;6.772;2022-07-23T05:39:16;44.55;;;19.65;;
5774;SDS011;2913;51.120;6.772;2022-07-23T05:41:41;47.10;;;20.70;;
5774;SDS011;2913;51.120;6.772;2022-07-23T05:44:07;47.25;;;20.45;;
5774;SDS011;2913;51.120;6.772;2022-07-23T05:46:37;57.70;;;21.90;;
5774;SDS011;2913;51.120;6.772;2022-07-23T05:49:02;51.28;;;22.48;;
5774;SDS011;2913;51.120;6.772;2022-07-23T05:51:30;58.55;;;21.60;;
5774;SDS011;2913;51.120;6.772;2022-07-23T05:53:56;49.55;;;21.02;;
5774;SDS011;2913;51.120;6.772;2022-07-23T05:56:24;51.60;;;21.45;;
5774;SDS011;2913;51.120;6.772;2022-07-23T05:58:49;49.53;;;22.55;;
5774;SDS011;2913;51.120;6.772;2022-07-23T06:01:17;50.60;;;21.60;;
5774;SDS011;2913;51.120;6.772;2022-07-23T06:03:46;45.60;;;21.75;;
5774;SDS011;2913;51.120;6.772;2022-07-23T06:06:11;54.03;;;22.77;;
5774;SDS011;2913;51.120;6.772;2022-07-23T06:08:39;58.45;;;21.15;;
5774;SDS011;2913;51.120;6.772;2022-07-23T06:11:08;61.42;;;22.58;;
5774;SDS011;2913;51.120;6.772;2022-07-23T06:13:36;50.67;;;22.33;;
5774;SDS011;2913;51.120;6.772;2022-07-23T06:16:02;54.55;;;23.08;;
5774;SDS011;2913;51.120;6.772;2022-07-23T06:18:27;49.80;;;22.88;;
5774;SDS011;2913;51.120;6.772;2022-07-23T06:20:56;55.03;;;22.17;;
5774;SDS011;2913;51.120;6.772;2022-07-23T06:23:21;57.85;;;23.88;;
5774;SDS011;2913;51.120;6.772;2022-07-23T06:25:49;47.13;;;23.15;;
5774;SDS011;2913;51.120;6.772;2022-07-23T06:28:17;60.38;;;23.13;;
5774;SDS011;2913;51.120;6.772;2022-07-23T06:30:43;56.72;;;22.70;;
5774;SDS011;2913;51.120;6.772;2022-07-23T06:33:08;50.72;;;23.63;;
5774;SDS011;2913;51.120;6.772;2022-07-23T06:35:36;51.50;;;22.92;;
5774;SDS011;2913;51.120;6.772;2022-07-23T06:38:02;53.42;;;23.25;;
5774;SDS011;2913;51.120;6.772;2022-07-23T06:40:27;61.30;;;24.65;;
5774;SDS011;2913;51.120;6.772;2022-07-23T06:42:53;52.53;;;25.15;;
5774;SDS011;2913;51.120;6.772;2022-07-23T06:45:18;62.42;;;25.20;;
5774;SDS011;2913;51.120;6.772;2022-07-23T06:47:44;62.33;;;25.65;;
5774;SDS011;2913;51.120;6.772;2022-07-23T06:50:10;56.25;;;24.20;;
5774;SDS011;2913;51.120;6.772;2022-07-23T06:52:35;66.90;;;29.67;;
5774;SDS011;2913;51.120;6.772;2022-07-23T06:55:01;63.30;;;24.55;;
5774;SDS011;2913;51.120;6.772;2022-07-23T06:57:29;55.33;;;24.23;;
5774;SDS011;2913;51.120;6.772;2022-07-23T06:59:55;52.05;;;23.58;;
5774;SDS011;2913;51.120;6.772;2022-07-23T07:02:23;57.83;;;21.80;;
5774;SDS011;2913;51.120;6.772;2022-07-23T07:04:49;47.67;;;21.67;;
5774;SDS011;2913;51.120;6.772;2022-07-23T07:07:14;60.85;;;24.35;;
5774;SDS011;2913;51.120;6.772;2022-07-23T07:09:42;54.03;;;24.63;;
5774;SDS011;2913;51.120;6.772;2022-07-23T07:12:09;61.75;;;25.85;;
5774;SDS011;2913;51.120;6.772;2022-07-23T07:14:37;61.92;;;26.23;;
5774;SDS011;2913;51.120;6.772;2022-07-23T07:17:05;67.88;;;27.13;;
5774;SDS011;2913;51.120;6.772;2022-07-23T07:19:33;62.60;;;25.08;;
5774;SDS011;2913;51.120;6.772;2022-07-23T07:21:58;66.57;;;26.05;;
5774;SDS011;2913;51.120;6.772;2022-07-23T07:24:24;69.40;;;27.45;;
5774;SDS011;2913;51.120;6.772;2022-07-23T07:26:55;58.08;;;25.88;;
5774;SDS011;2913;51.120;6.772;2022-07-23T07:29:24;66.65;;;28.95;;
5774;SDS011;2913;51.120;6.772;2022-07-23T07:31:53;63.53;;;28.60;;
5774;SDS011;2913;51.120;6.772;2022-07-23T07:34:19;70.50;;;27.48;;
5774;SDS011;2913;51.120;6.772;2022-07-23T07:36:45;80.18;;;29.40;;
5774;SDS011;2913;51.120;6.772;2022-07-23T07:39:12;78.82;;;30.02;;
5774;SDS011;2913;51.120;6.772;2022-07-23T07:41:39;75.18;;;29.67;;
5774;SDS011;2913;51.120;6.772;2022-07-23T07:44:05;65.97;;;26.83;;
5774;SDS011;2913;51.120;6.772;2022-07-23T07:46:33;81.18;;;28.48;;
5774;SDS011;2913;51.120;6.772;2022-07-23T07:48:58;73.63;;;27.60;;
5774;SDS011;2913;51.120;6.772;2022-07-23T07:51:24;71.68;;;26.92;;
5774;SDS011;2913;51.120;6.772;2022-07-23T07:53:51;62.67;;;27.17;;
5774;SDS011;2913;51.120;6.772;2022-07-23T07:56:19;64.65;;;22.65;;
5774;SDS011;2913;51.120;6.772;2022-07-23T07:58:47;54.97;;;21.67;;
5774;SDS011;2913;51.120;6.772;2022-07-23T08:01:17;59.53;;;24.30;;
5774;SDS011;2913;51.120;6.772;2022-07-23T08:03:46;58.00;;;23.48;;
5774;SDS011;2913;51.120;6.772;2022-07-23T08:06:12;67.18;;;24.30;;
5774;SDS011;2913;51.120;6.772;2022-07-23T08:08:38;67.22;;;25.02;;
5774;SDS011;2913;51.120;6.772;2022-07-23T08:11:03;57.78;;;25.10;;
5774;SDS011;2913;51.120;6.772;2022-07-23T08:13:29;73.18;;;27.00;;
5774;SDS011;2913;51.120;6.772;2022-07-23T08:15:55;59.28;;;25.40;;
5774;SDS011;2913;51.120;6.772;2022-07-23T08:18:20;59.13;;;22.25;;
5774;SDS011;2913;51.120;6.772;2022-07-23T08:20:48;61.08;;;25.92;;
5774;SDS011;2913;51.120;6.772;2022-07-23T08:23:14;42.85;;;18.52;;
5774;SDS011;2913;51.120;6.772;2022-07-23T08:25:46;33.75;;;16.63;;
5774;SDS011;2913;51.120;6.772;2022-07-23T08:28:12;49.28;;;18.73;;
5774;SDS011;2913;51.120;6.772;2022-07-23T08:30:40;51.33;;;18.50;;
5774;SDS011;2913;51.120;6.772;2022-07-23T08:33:13;43.33;;;19.65;;
5774;SDS011;2913;51.120;6.772;2022-07-23T08:35:42;50.80;;;24.58;;
5774;SDS011;2913;51.120;6.772;2022-07-23T08:38:11;57.60;;;21.63;;
5774;SDS011;2913;51.120;6.772;2022-07-23T08:40:39;49.10;;;21.70;;
5774;SDS011;2913;51.120;6.772;2022-07-23T08:43:13;38.33;;;19.77;;
5774;SDS011;2913;51.120;6.772;2022-07-23T08:45:47;41.58;;;20.50;;
5774;SDS011;2913;51.120;6.772;2022-07-23T08:50:49;39.08;;;17.92;;
5774;SDS011;2913;51.120;6.772;2022-07-23T08:53:16;42.35;;;18.08;;
5774;SDS011;2913;51.120;6.772;2022-07-23T08:55:46;40.38;;;17.75;;
5774;SDS011;2913;51.120;6.772;2022-07-23T08:58:14;44.47;;;20.35;;
5774;SDS011;2913;51.120;6.772;2022-07-23T09:00:40;44.17;;;17.45;;
5774;SDS011;2913;51.120;6.772;2022-07-23T09:03:06;39.08;;;18.52;;
5774;SDS011;2913;51.120;6.772;2022-07-23T09:05:41;38.33;;;17.95;;
5774;SDS011;2913;51.120;6.772;2022-07-23T09:08:11;49.83;;;21.48;;
5774;SDS011;2913;51.120;6.772;2022-07-23T09:13:49;35.80;;;18.88;;
5774;SDS011;2913;51.120;6.772;2022-07-23T09:18:54;47.97;;;20.30;;
5774;SDS011;2913;51.120;6.772;2022-07-23T09:24:08;50.53;;;22.25;;
5774;SDS011;2913;51.120;6.772;2022-07-23T09:29:20;39.67;;;17.90;;
5774;SDS011;2913;51.120;6.772;2022-07-23T09:31:51;37.75;;;17.13;;
5774;SDS011;2913;51.120;6.772;2022-07-23T09:34:24;40.67;;;16.00;;
5774;SDS011;2913;51.120;6.772;2022-07-23T09:36:52;38.75;;;15.88;;
5774;SDS011;2913;51.120;6.772;2022-07-23T09:39:29;47.42;;;17.73;;
5774;SDS011;2913;51.120;6.772;2022-07-23T09:44:44;32.45;;;17.83;;
5774;SDS011;2913;51.120;6.772;2022-07-23T09:47:14;35.63;;;16.63;;
5774;SDS011;2913;51.120;6.772;2022-07-23T09:49:40;37.55;;;16.67;;
5774;SDS011;2913;51.120;6.772;2022-07-23T09:52:42;38.15;;;18.48;;
5774;SDS011;2913;51.120;6.772;2022-07-23T09:55:09;35.25;;;14.63;;
5774;SDS011;2913;51.120;6.772;2022-07-23T09:57:35;35.30;;;13.30;;
5774;SDS011;2913;51.120;6.772;2022-07-23T10:00:03;28.83;;;13.07;;
5774;SDS011;2913;51.120;6.772;2022-07-23T10:02:31;27.77;;;12.40;;
5774;SDS011;2913;51.120;6.772;2022-07-23T10:05:03;29.08;;;11.35;;
5774;SDS011;2913;51.120;6.772;2022-07-23T10:07:33;33.25;;;12.50;;
5774;SDS011;2913;51.120;6.772;2022-07-23T10:10:04;42.40;;;13.57;;
5774;SDS011;2913;51.120;6.772;2022-07-23T10:12:31;29.95;;;12.95;;
5774;SDS011;2913;51.120;6.772;2022-07-23T10:15:05;27.50;;;11.95;;
5774;SDS011;2913;51.120;6.772;2022-07-23T10:17:34;31.05;;;11.80;;
5774;SDS011;2913;51.120;6.772;2022-07-23T10:20:00;22.90;;;10.63;;
5774;SDS011;2913;51.120;6.772;2022-07-23T10:22:37;33.03;;;10.07;;
5774;SDS011;2913;51.120;6.772;2022-07-23T10:25:12;27.30;;;12.07;;
5774;SDS011;2913;51.120;6.772;2022-07-23T10:33:15;25.15;;;9.95;;
5774;SDS011;2913;51.120;6.772;2022-07-23T10:36:07;22.33;;;10.90;;
5774;SDS011;2913;51.120;6.772;2022-07-23T10:38:48;31.50;;;9.05;;
5774;SDS011;2913;51.120;6.772;2022-07-23T10:41:38;19.40;;;9.25;;
5774;SDS011;2913;51.120;6.772;2022-07-23T10:46:34;20.48;;;8.50;;
5774;SDS011;2913;51.120;6.772;2022-07-23T10:49:29;20.98;;;8.57;;
5774;SDS011;2913;51.120;6.772;2022-07-23T10:54:44;15.63;;;7.75;;
5774;SDS011;2913;51.120;6.772;2022-07-23T10:57:11;26.92;;;8.55;;
5774;SDS011;2913;51.120;6.772;2022-07-23T11:02:26;16.25;;;7.63;;
5774;SDS011;2913;51.120;6.772;2022-07-23T11:05:04;16.40;;;8.00;;
5774;SDS011;2913;51.120;6.772;2022-07-23T11:07:31;15.25;;;8.02;;
5774;SDS011;2913;51.120;6.772;2022-07-23T11:09:59;16.13;;;7.40;;
5774;SDS011;2913;51.120;6.772;2022-07-23T11:17:59;15.35;;;8.05;;
5774;SDS011;2913;51.120;6.772;2022-07-23T11:20:25;20.33;;;8.68;;
5774;SDS011;2913;51.120;6.772;2022-07-23T11:22:52;17.95;;;7.15;;
5774;SDS011;2913;51.120;6.772;2022-07-23T11:27:50;12.60;;;8.00;;
5774;SDS011;2913;51.120;6.772;2022-07-23T11:32:51;21.25;;;8.77;;
5774;SDS011;2913;51.120;6.772;2022-07-23T11:35:27;18.42;;;8.73;;
5774;SDS011;2913;51.120;6.772;2022-07-23T11:37:54;26.17;;;11.43;;
5774;SDS011;2913;51.120;6.772;2022-07-23T11:40:28;23.75;;;10.10;;
5774;SDS011;2913;51.120;6.772;2022-07-23T11:42:58;16.25;;;9.63;;
5774;SDS011;2913;51.120;6.772;2022-07-23T11:45:29;17.63;;;7.90;;
5774;SDS011;2913;51.120;6.772;2022-07-23T11:48:03;17.90;;;7.38;;
5774;SDS011;2913;51.120;6.772;2022-07-23T11:50:30;15.32;;;7.63;;
5774;SDS011;2913;51.120;6.772;2022-07-23T11:52:58;16.20;;;6.82;;
5774;SDS011;2913;51.120;6.772;2022-07-23T11:55:25;15.88;;;6.32;;
5774;SDS011;2913;51.120;6.772;2022-07-23T11:57:51;13.07;;;6.10;;
5774;SDS011;2913;51.120;6.772;2022-07-23T12:00:22;13.57;;;6.30;;
5774;SDS011;2913;51.120;6.772;2022-07-23T12:02:52;16.92;;;5.93;;
5774;SDS011;2913;51.120;6.772;2022-07-23T12:05:24;23.17;;;6.45;;
5774;SDS011;2913;51.120;6.772;2022-07-23T12:07:55;13.38;;;6.70;;
5774;SDS011;2913;51.120;6.772;2022-07-23T12:10:28;14.05;;;6.55;;
5774;SDS011;2913;51.120;6.772;2022-07-23T12:13:09;11.65;;;5.80;;
5774;SDS011;2913;51.120;6.772;2022-07-23T12:15:42;16.20;;;6.50;;
5774;SDS011;2913;51.120;6.772;2022-07-23T12:18:10;12.13;;;6.63;;
5774;SDS011;2913;51.120;6.772;2022-07-23T12:20:39;10.77;;;5.63;;
5774;SDS011;2913;51.120;6.772;2022-07-23T12:23:13;12.65;;;6.57;;
5774;SDS011;2913;51.120;6.772;2022-07-23T12:25:42;14.48;;;5.57;;
5774;SDS011;2913;51.120;6.772;2022-07-23T12:28:16;14.43;;;5.47;;
5774;SDS011;2913;51.120;6.772;2022-07-23T12:31:05;13.68;;;6.05;;
5774;SDS011;2913;51.120;6.772;2022-07-23T12:36:00;15.18;;;5.88;;
5774;SDS011;2913;51.120;6.772;2022-07-23T12:38:36;14.07;;;5.72;;
5774;SDS011;2913;51.120;6.772;2022-07-23T12:41:03;13.02;;;5.95;;
5774;SDS011;2913;51.120;6.772;2022-07-23T12:43:37;15.75;;;4.60;;
5774;SDS011;2913;51.120;6.772;2022-07-23T12:51:07;12.32;;;5.53;;
5774;SDS011;2913;51.120;6.772;2022-07-23T12:56:04;13.05;;;5.55;;
5774;SDS011;2913;51.120;6.772;2022-07-23T13:01:22;24.20;;;6.55;;
5774;SDS011;2913;51.120;6.772;2022-07-23T13:06:26;10.40;;;5.38;;
5774;SDS011;2913;51.120;6.772;2022-07-23T13:08:54;10.65;;;5.30;;
5774;SDS011;2913;51.120;6.772;2022-07-23T13:11:19;10.63;;;4.38;;
5774;SDS011;2913;51.120;6.772;2022-07-23T13:13:45;7.78;;;4.43;;
5774;SDS011;2913;51.120;6.772;2022-07-23T13:16:13;11.93;;;4.60;;
5774;SDS011;2913;51.120;6.772;2022-07-23T13:18:41;11.63;;;4.47;;
5774;SDS011;2913;51.120;6.772;2022-07-23T13:21:07;10.07;;;4.78;;
5774;SDS011;2913;51.120;6.772;2022-07-23T13:23:35;14.50;;;4.85;;
5774;SDS011;2913;51.120;6.772;2022-07-23T13:26:01;12.75;;;4.50;;
5774;SDS011;2913;51.120;6.772;2022-07-23T13:28:31;8.80;;;4.00;;
5774;SDS011;2913;51.120;6.772;2022-07-23T13:30:57;9.45;;;4.60;;
5774;SDS011;2913;51.120;6.772;2022-07-23T13:33:23;9.73;;;4.63;;
5774;SDS011;2913;51.120;6.772;2022-07-23T13:35:50;9.45;;;4.60;;
5774;SDS011;2913;51.120;6.772;2022-07-23T13:38:19;11.20;;;4.30;;
5774;SDS011;2913;51.120;6.772;2022-07-23T13:40:47;10.63;;;4.88;;
5774;SDS011;2913;51.120;6.772;2022-07-23T13:43:26;14.25;;;4.72;;
5774;SDS011;2913;51.120;6.772;2022-07-23T13:45:52;7.32;;;3.88;;
5774;SDS011;2913;51.120;6.772;2022-07-23T13:48:20;9.00;;;4.00;;
5774;SDS011;2913;51.120;6.772;2022-07-23T13:50:47;6.28;;;4.13;;
5774;SDS011;2913;51.120;6.772;2022-07-23T13:53:17;11.07;;;4.10;;
5774;SDS011;2913;51.120;6.772;2022-07-23T13:55:47;13.55;;;4.40;;
5774;SDS011;2913;51.120;6.772;2022-07-23T13:58:14;7.13;;;4.03;;
5774;SDS011;2913;51.120;6.772;2022-07-23T14:00:43;9.20;;;4.55;;
5774;SDS011;2913;51.120;6.772;2022-07-23T14:03:12;6.35;;;3.67;;
5774;SDS011;2913;51.120;6.772;2022-07-23T14:05:38;10.13;;;3.90;;
5774;SDS011;2913;51.120;6.772;2022-07-23T14:08:04;10.52;;;4.53;;
5774;SDS011;2913;51.120;6.772;2022-07-23T14:10:33;10.63;;;4.22;;
5774;SDS011;2913;51.120;6.772;2022-07-23T14:12:58;13.00;;;4.53;;
5774;SDS011;2913;51.120;6.772;2022-07-23T14:15:30;9.98;;;4.20;;
5774;SDS011;2913;51.120;6.772;2022-07-23T14:17:56;7.40;;;3.83;;
5774;SDS011;2913;51.120;6.772;2022-07-23T14:20:25;9.48;;;4.32;;
5774;SDS011;2913;51.120;6.772;2022-07-23T14:22:51;8.13;;;4.03;;
5774;SDS011;2913;51.120;6.772;2022-07-23T14:25:17;11.98;;;4.75;;
5774;SDS011;2913;51.120;6.772;2022-07-23T14:27:45;6.30;;;3.83;;
5774;SDS011;2913;51.120;6.772;2022-07-23T14:30:11;12.85;;;4.22;;
5774;SDS011;2913;51.120;6.772;2022-07-23T14:32:42;7.85;;;3.90;;
5774;SDS011;2913;51.120;6.772;2022-07-23T14:35:10;59.78;;;7.95;;
5774;SDS011;2913;51.120;6.772;2022-07-23T14:37:38;25.40;;;4.95;;
5774;SDS011;2913;51.120;6.772;2022-07-23T14:40:04;7.72;;;4.03;;
5774;SDS011;2913;51.120;6.772;2022-07-23T14:42:31;7.10;;;4.38;;
5774;SDS011;2913;51.120;6.772;2022-07-23T14:44:56;18.42;;;4.05;;
5774;SDS011;2913;51.120;6.772;2022-07-23T14:47:22;11.85;;;4.32;;
5774;SDS011;2913;51.120;6.772;2022-07-23T14:49:48;10.63;;;3.90;;
5774;SDS011;2913;51.120;6.772;2022-07-23T14:52:14;9.07;;;4.20;;
5774;SDS011;2913;51.120;6.772;2022-07-23T14:54:40;14.52;;;4.63;;
5774;SDS011;2913;51.120;6.772;2022-07-23T14:57:06;8.13;;;3.70;;
5774;SDS011;2913;51.120;6.772;2022-07-23T14:59:34;11.50;;;4.22;;
5774;SDS011;2913;51.120;6.772;2022-07-23T15:02:00;10.80;;;4.30;;
5774;SDS011;2913;51.120;6.772;2022-07-23T15:04:25;9.73;;;4.70;;
5774;SDS011;2913;51.120;6.772;2022-07-23T15:06:51;9.98;;;4.35;;
5774;SDS011;2913;51.120;6.772;2022-07-23T15:09:17;11.68;;;4.40;;
5774;SDS011;2913;51.120;6.772;2022-07-23T15:11:43;8.65;;;3.92;;
5774;SDS011;2913;51.120;6.772;2022-07-23T15:14:11;12.82;;;4.07;;
5774;SDS011;2913;51.120;6.772;2022-07-23T15:16:37;10.55;;;4.30;;
5774;SDS011;2913;51.120;6.772;2022-07-23T15:19:03;9.85;;;4.55;;
5774;SDS011;2913;51.120;6.772;2022-07-23T15:21:31;13.73;;;5.47;;
5774;SDS011;2913;51.120;6.772;2022-07-23T15:23:57;11.63;;;4.57;;
5774;SDS011;2913;51.120;6.772;2022-07-23T15:26:29;10.93;;;4.55;;
5774;SDS011;2913;51.120;6.772;2022-07-23T15:28:57;9.43;;;4.47;;
5774;SDS011;2913;51.120;6.772;2022-07-23T15:33:53;8.43;;;4.60;;
5774;SDS011;2913;51.120;6.772;2022-07-23T15:36:19;8.82;;;4.45;;
5774;SDS011;2913;51.120;6.772;2022-07-23T15:38:45;11.38;;;4.60;;
5774;SDS011;2913;51.120;6.772;2022-07-23T15:41:11;12.77;;;4.78;;
5774;SDS011;2913;51.120;6.772;2022-07-23T15:43:37;8.70;;;4.10;;
5774;SDS011;2913;51.120;6.772;2022-07-23T15:46:05;11.07;;;4.70;;
5774;SDS011;2913;51.120;6.772;2022-07-23T15:48:31;6.55;;;4.40;;
5774;SDS011;2913;51.120;6.772;2022-07-23T15:50:59;9.60;;;4.65;;
5774;SDS011;2913;51.120;6.772;2022-07-23T15:53:26;10.18;;;5.03;;
5774;SDS011;2913;51.120;6.772;2022-07-23T15:55:54;14.82;;;4.88;;